sensor_id;sensor_type;location;lat;lon;timestamp;P1;durP1;ratioP1;P2;durP2;ratioP2
66421;SDS011;53228;51.380;0.098;2023-07-29T00:00:10;2.03;;;1.08;;
66421;SDS011;53228;51.380;0.098;2023-07-29T00:02:40;1.85;;;1.00;;
66421;SDS011;53228;51.380;0.098;2023-07-29T00:05:08;2.30;;;1.38;;
66421;SDS011;53228;51.380;0.098;2023-07-29T00:07:36;1.45;;;1.15;;
66421;SDS011;53228;51.380;0.098;2023-07-29T00:10:03;5.32;;;1.05;;
66421;SDS011;53228;51.380;0.098;2023-07-29T00:12:32;4.45;;;1.25;;
66421;SDS011;53228;51.380;0.098;2023-07-29T00:14:59;2.42;;;1.00;;
66421;SDS011;53228;51.380;0.098;2023-07-29T00:17:27;2.08;;;0.90;;
66421;SDS011;53228;51.380;0.098;2023-07-29T00:19:55;1.33;;;0.98;;
66421;SDS011;53228;51.380;0.098;2023-07-29T00:22:23;1.20;;;1.10;;
66421;SDS011;53228;51.380;0.098;2023-07-29T00:24:53;3.00;;;1.58;;
66421;SDS011;53228;51.380;0.098;2023-07-29T00:27:22;7.57;;;3.50;;
66421;SDS011;53228;51.380;0.098;2023-07-29T00:29:50;2.58;;;1.20;;
66421;SDS011;53228;51.380;0.098;2023-07-29T00:32:17;3.13;;;1.20;;
66421;SDS011;53228;51.380;0.098;2023-07-29T00:34:45;1.40;;;1.10;;
66421;SDS011;53228;51.380;0.098;2023-07-29T00:37:13;2.65;;;1.23;;
66421;SDS011;53228;51.380;0.098;2023-07-29T00:39:41;3.30;;;1.10;;
66421;SDS011;53228;51.380;0.098;2023-07-29T00:42:09;2.10;;;1.05;;
66421;SDS011;53228;51.380;0.098;2023-07-29T00:44:37;1.77;;;1.02;;
66421;SDS011;53228;51.380;0.098;2023-07-29T00:47:04;1.40;;;0.93;;
66421;SDS011;53228;51.380;0.098;2023-07-29T00:49:34;3.38;;;1.33;;
66421;SDS011;53228;51.380;0.098;2023-07-29T00:52:02;2.80;;;1.05;;
66421;SDS011;53228;51.380;0.098;2023-07-29T00:54:30;1.23;;;0.70;;
66421;SDS011;53228;51.380;0.098;2023-07-29T00:56:57;2.08;;;0.95;;
66421;SDS011;53228;51.380;0.098;2023-07-29T00:59:27;1.92;;;1.08;;
66421;SDS011;53228;51.380;0.098;2023-07-29T01:01:57;2.05;;;0.90;;
66421;SDS011;53228;51.380;0.098;2023-07-29T01:04:25;1.88;;;1.10;;
66421;SDS011;53228;51.380;0.098;2023-07-29T01:09:43;4.05;;;1.00;;
66421;SDS011;53228;51.380;0.098;2023-07-29T01:12:19;1.88;;;1.00;;
66421;SDS011;53228;51.380;0.098;2023-07-29T01:17:47;2.05;;;1.20;;
66421;SDS011;53228;51.380;0.098;2023-07-29T01:20:20;2.50;;;1.33;;
66421;SDS011;53228;51.380;0.098;2023-07-29T01:22:49;1.23;;;1.10;;
66421;SDS011;53228;51.380;0.098;2023-07-29T01:25:17;2.58;;;1.20;;
66421;SDS011;53228;51.380;0.098;2023-07-29T01:27:46;3.92;;;1.15;;
66421;SDS011;53228;51.380;0.098;2023-07-29T01:30:14;2.97;;;1.27;;
66421;SDS011;53228;51.380;0.098;2023-07-29T01:32:59;2.15;;;1.10;;
66421;SDS011;53228;51.380;0.098;2023-07-29T01:36:18;1.23;;;1.10;;
66421;SDS011;53228;51.380;0.098;2023-07-29T01:38:38;1.92;;;1.30;;
66421;SDS011;53228;51.380;0.098;2023-07-29T01:41:08;3.50;;;1.17;;
66421;SDS011;53228;51.380;0.098;2023-07-29T01:43:36;3.47;;;1.00;;
66421;SDS011;53228;51.380;0.098;2023-07-29T01:46:11;6.18;;;1.27;;
66421;SDS011;53228;51.380;0.098;2023-07-29T01:48:39;2.20;;;1.15;;
66421;SDS011;53228;51.380;0.098;2023-07-29T01:51:07;3.65;;;1.10;;
66421;SDS011;53228;51.380;0.098;2023-07-29T01:53:37;0.98;;;0.88;;
66421;SDS011;53228;51.380;0.098;2023-07-29T01:56:05;5.18;;;1.42;;
66421;SDS011;53228;51.380;0.098;2023-07-29T01:58:35;2.13;;;1.17;;
66421;SDS011;53228;51.380;0.098;2023-07-29T02:01:03;2.88;;;1.00;;
66421;SDS011;53228;51.380;0.098;2023-07-29T02:03:30;3.25;;;0.95;;
66421;SDS011;53228;51.380;0.098;2023-07-29T02:05:58;4.50;;;1.52;;
66421;SDS011;53228;51.380;0.098;2023-07-29T02:08:26;5.15;;;1.10;;
66421;SDS011;53228;51.380;0.098;2023-07-29T02:10:53;6.70;;;1.30;;
66421;SDS011;53228;51.380;0.098;2023-07-29T02:13:21;2.47;;;1.10;;
66421;SDS011;53228;51.380;0.098;2023-07-29T02:15:49;2.85;;;1.17;;
66421;SDS011;53228;51.380;0.098;2023-07-29T02:18:16;2.03;;;1.00;;
66421;SDS011;53228;51.380;0.098;2023-07-29T02:20:44;2.88;;;0.95;;
66421;SDS011;53228;51.380;0.098;2023-07-29T02:23:16;5.35;;;1.50;;
66421;SDS011;53228;51.380;0.098;2023-07-29T02:25:44;1.52;;;1.00;;
66421;SDS011;53228;51.380;0.098;2023-07-29T02:28:12;9.32;;;2.28;;
66421;SDS011;53228;51.380;0.098;2023-07-29T02:30:40;3.40;;;1.08;;
66421;SDS011;53228;51.380;0.098;2023-07-29T02:33:11;9.38;;;1.55;;
66421;SDS011;53228;51.380;0.098;2023-07-29T02:35:39;7.32;;;1.70;;
66421;SDS011;53228;51.380;0.098;2023-07-29T02:38:07;5.97;;;1.40;;
66421;SDS011;53228;51.380;0.098;2023-07-29T02:40:34;2.63;;;1.00;;
66421;SDS011;53228;51.380;0.098;2023-07-29T02:43:02;3.47;;;1.20;;
66421;SDS011;53228;51.380;0.098;2023-07-29T02:45:29;4.22;;;1.10;;
66421;SDS011;53228;51.380;0.098;2023-07-29T02:47:57;4.75;;;1.20;;
66421;SDS011;53228;51.380;0.098;2023-07-29T02:50:25;4.18;;;1.38;;
66421;SDS011;53228;51.380;0.098;2023-07-29T02:52:52;5.55;;;1.50;;
66421;SDS011;53228;51.380;0.098;2023-07-29T02:55:20;4.30;;;1.25;;
66421;SDS011;53228;51.380;0.098;2023-07-29T02:57:47;3.35;;;1.15;;
66421;SDS011;53228;51.380;0.098;2023-07-29T03:00:15;3.10;;;1.10;;
66421;SDS011;53228;51.380;0.098;2023-07-29T03:02:43;4.57;;;1.30;;
66421;SDS011;53228;51.380;0.098;2023-07-29T03:05:11;1.98;;;1.38;;
66421;SDS011;53228;51.380;0.098;2023-07-29T03:07:40;4.97;;;1.30;;
66421;SDS011;53228;51.380;0.098;2023-07-29T03:10:07;7.43;;;1.70;;
66421;SDS011;53228;51.380;0.098;2023-07-29T03:12:36;3.33;;;1.33;;
66421;SDS011;53228;51.380;0.098;2023-07-29T03:15:04;5.75;;;1.48;;
66421;SDS011;53228;51.380;0.098;2023-07-29T03:17:32;3.65;;;1.40;;
66421;SDS011;53228;51.380;0.098;2023-07-29T03:19:59;3.40;;;1.58;;
66421;SDS011;53228;51.380;0.098;2023-07-29T03:22:27;4.90;;;1.35;;
66421;SDS011;53228;51.380;0.098;2023-07-29T03:24:55;2.42;;;1.40;;
66421;SDS011;53228;51.380;0.098;2023-07-29T03:27:23;5.45;;;1.70;;
66421;SDS011;53228;51.380;0.098;2023-07-29T03:29:51;3.10;;;1.42;;
66421;SDS011;53228;51.380;0.098;2023-07-29T03:32:18;3.83;;;1.40;;
66421;SDS011;53228;51.380;0.098;2023-07-29T03:34:46;7.50;;;1.83;;
66421;SDS011;53228;51.380;0.098;2023-07-29T03:37:14;3.25;;;1.75;;
66421;SDS011;53228;51.380;0.098;2023-07-29T03:39:41;11.13;;;2.10;;
66421;SDS011;53228;51.380;0.098;2023-07-29T03:42:09;4.25;;;1.50;;
66421;SDS011;53228;51.380;0.098;2023-07-29T03:44:37;4.88;;;1.73;;
66421;SDS011;53228;51.380;0.098;2023-07-29T03:47:06;7.20;;;1.83;;
66421;SDS011;53228;51.380;0.098;2023-07-29T03:49:35;4.55;;;2.00;;
66421;SDS011;53228;51.380;0.098;2023-07-29T03:52:04;3.08;;;1.55;;
66421;SDS011;53228;51.380;0.098;2023-07-29T03:54:32;8.43;;;1.70;;
66421;SDS011;53228;51.380;0.098;2023-07-29T03:57:00;6.75;;;1.80;;
66421;SDS011;53228;51.380;0.098;2023-07-29T03:59:28;5.05;;;1.88;;
66421;SDS011;53228;51.380;0.098;2023-07-29T04:01:56;3.95;;;1.45;;
66421;SDS011;53228;51.380;0.098;2023-07-29T04:04:24;3.58;;;1.60;;
66421;SDS011;53228;51.380;0.098;2023-07-29T04:06:52;10.18;;;2.17;;
66421;SDS011;53228;51.380;0.098;2023-07-29T04:09:20;7.43;;;2.05;;
66421;SDS011;53228;51.380;0.098;2023-07-29T04:11:47;7.90;;;1.92;;
66421;SDS011;53228;51.380;0.098;2023-07-29T04:14:17;7.50;;;1.92;;
66421;SDS011;53228;51.380;0.098;2023-07-29T04:16:44;3.63;;;1.90;;
66421;SDS011;53228;51.380;0.098;2023-07-29T04:19:16;5.55;;;1.98;;
66421;SDS011;53228;51.380;0.098;2023-07-29T04:21:44;5.88;;;1.80;;
66421;SDS011;53228;51.380;0.098;2023-07-29T04:24:13;7.43;;;1.92;;
66421;SDS011;53228;51.380;0.098;2023-07-29T04:26:41;6.25;;;2.03;;
66421;SDS011;53228;51.380;0.098;2023-07-29T04:29:08;6.88;;;1.95;;
66421;SDS011;53228;51.380;0.098;2023-07-29T04:31:36;8.00;;;1.98;;
66421;SDS011;53228;51.380;0.098;2023-07-29T04:34:04;3.53;;;1.80;;
66421;SDS011;53228;51.380;0.098;2023-07-29T04:36:32;9.50;;;1.85;;
66421;SDS011;53228;51.380;0.098;2023-07-29T04:39:00;6.93;;;1.83;;
66421;SDS011;53228;51.380;0.098;2023-07-29T04:41:28;6.00;;;1.67;;
66421;SDS011;53228;51.380;0.098;2023-07-29T04:43:56;11.93;;;1.73;;
66421;SDS011;53228;51.380;0.098;2023-07-29T04:46:23;5.53;;;2.00;;
66421;SDS011;53228;51.380;0.098;2023-07-29T04:48:51;5.05;;;1.73;;
66421;SDS011;53228;51.380;0.098;2023-07-29T04:51:19;5.32;;;1.80;;
66421;SDS011;53228;51.380;0.098;2023-07-29T04:53:47;6.25;;;1.90;;
66421;SDS011;53228;51.380;0.098;2023-07-29T04:56:15;7.07;;;1.80;;
66421;SDS011;53228;51.380;0.098;2023-07-29T05:01:12;8.07;;;1.73;;
66421;SDS011;53228;51.380;0.098;2023-07-29T05:03:40;6.07;;;1.63;;
66421;SDS011;53228;51.380;0.098;2023-07-29T05:06:08;5.63;;;1.65;;
66421;SDS011;53228;51.380;0.098;2023-07-29T05:08:36;5.60;;;1.60;;
66421;SDS011;53228;51.380;0.098;2023-07-29T05:11:03;3.92;;;1.40;;
66421;SDS011;53228;51.380;0.098;2023-07-29T05:13:31;6.82;;;1.42;;
66421;SDS011;53228;51.380;0.098;2023-07-29T05:15:59;10.60;;;2.40;;
66421;SDS011;53228;51.380;0.098;2023-07-29T05:18:27;7.40;;;1.90;;
66421;SDS011;53228;51.380;0.098;2023-07-29T05:20:55;5.18;;;1.77;;
66421;SDS011;53228;51.380;0.098;2023-07-29T05:23:23;4.97;;;1.60;;
66421;SDS011;53228;51.380;0.098;2023-07-29T05:25:51;5.03;;;1.80;;
66421;SDS011;53228;51.380;0.098;2023-07-29T05:28:19;8.00;;;1.85;;
66421;SDS011;53228;51.380;0.098;2023-07-29T05:30:47;5.07;;;1.42;;
66421;SDS011;53228;51.380;0.098;2023-07-29T05:33:15;3.13;;;1.45;;
66421;SDS011;53228;51.380;0.098;2023-07-29T05:35:43;5.57;;;1.83;;
66421;SDS011;53228;51.380;0.098;2023-07-29T05:38:11;6.03;;;1.73;;
66421;SDS011;53228;51.380;0.098;2023-07-29T05:40:38;8.48;;;1.83;;
66421;SDS011;53228;51.380;0.098;2023-07-29T05:43:06;3.33;;;1.65;;
66421;SDS011;53228;51.380;0.098;2023-07-29T05:45:34;3.65;;;1.50;;
66421;SDS011;53228;51.380;0.098;2023-07-29T05:48:01;5.75;;;1.80;;
66421;SDS011;53228;51.380;0.098;2023-07-29T05:50:29;2.83;;;1.80;;
66421;SDS011;53228;51.380;0.098;2023-07-29T05:52:57;9.80;;;2.40;;
66421;SDS011;53228;51.380;0.098;2023-07-29T05:55:25;3.65;;;1.52;;
66421;SDS011;53228;51.380;0.098;2023-07-29T05:57:52;2.60;;;1.50;;
66421;SDS011;53228;51.380;0.098;2023-07-29T06:00:21;5.55;;;1.80;;
66421;SDS011;53228;51.380;0.098;2023-07-29T06:02:48;7.28;;;1.55;;
66421;SDS011;53228;51.380;0.098;2023-07-29T06:05:20;8.45;;;1.80;;
66421;SDS011;53228;51.380;0.098;2023-07-29T06:07:47;5.28;;;1.40;;
66421;SDS011;53228;51.380;0.098;2023-07-29T06:10:16;3.55;;;1.58;;
66421;SDS011;53228;51.380;0.098;2023-07-29T06:12:47;7.28;;;2.25;;
66421;SDS011;53228;51.380;0.098;2023-07-29T06:15:15;7.10;;;2.15;;
66421;SDS011;53228;51.380;0.098;2023-07-29T06:17:43;4.07;;;1.60;;
66421;SDS011;53228;51.380;0.098;2023-07-29T06:20:11;9.45;;;1.90;;
66421;SDS011;53228;51.380;0.098;2023-07-29T06:22:39;4.85;;;1.63;;
66421;SDS011;53228;51.380;0.098;2023-07-29T06:25:06;4.72;;;1.83;;
66421;SDS011;53228;51.380;0.098;2023-07-29T06:27:35;5.25;;;1.70;;
66421;SDS011;53228;51.380;0.098;2023-07-29T06:30:03;7.32;;;2.03;;
66421;SDS011;53228;51.380;0.098;2023-07-29T06:32:31;5.97;;;1.75;;
66421;SDS011;53228;51.380;0.098;2023-07-29T06:34:59;5.28;;;1.60;;
66421;SDS011;53228;51.380;0.098;2023-07-29T06:37:26;5.93;;;1.95;;
66421;SDS011;53228;51.380;0.098;2023-07-29T06:39:54;4.97;;;1.80;;
66421;SDS011;53228;51.380;0.098;2023-07-29T06:42:22;7.35;;;2.75;;
66421;SDS011;53228;51.380;0.098;2023-07-29T06:44:49;7.05;;;1.75;;
66421;SDS011;53228;51.380;0.098;2023-07-29T06:47:17;8.90;;;1.90;;
66421;SDS011;53228;51.380;0.098;2023-07-29T06:49:45;5.20;;;1.48;;
66421;SDS011;53228;51.380;0.098;2023-07-29T06:52:13;3.75;;;1.45;;
66421;SDS011;53228;51.380;0.098;2023-07-29T06:54:40;3.92;;;1.50;;
66421;SDS011;53228;51.380;0.098;2023-07-29T06:57:08;6.05;;;1.60;;
66421;SDS011;53228;51.380;0.098;2023-07-29T06:59:36;5.95;;;1.60;;
66421;SDS011;53228;51.380;0.098;2023-07-29T07:02:03;4.03;;;1.73;;
66421;SDS011;53228;51.380;0.098;2023-07-29T07:04:31;6.53;;;2.10;;
66421;SDS011;53228;51.380;0.098;2023-07-29T07:06:59;4.95;;;1.83;;
66421;SDS011;53228;51.380;0.098;2023-07-29T07:09:26;5.45;;;1.95;;
66421;SDS011;53228;51.380;0.098;2023-07-29T07:11:54;4.22;;;1.50;;
66421;SDS011;53228;51.380;0.098;2023-07-29T07:14:22;5.45;;;2.25;;
66421;SDS011;53228;51.380;0.098;2023-07-29T07:16:49;5.13;;;1.50;;
66421;SDS011;53228;51.380;0.098;2023-07-29T07:19:17;5.00;;;1.58;;
66421;SDS011;53228;51.380;0.098;2023-07-29T07:21:45;4.65;;;1.60;;
66421;SDS011;53228;51.380;0.098;2023-07-29T07:24:13;4.55;;;1.13;;
66421;SDS011;53228;51.380;0.098;2023-07-29T07:26:41;2.05;;;0.90;;
66421;SDS011;53228;51.380;0.098;2023-07-29T07:29:09;2.60;;;1.10;;
66421;SDS011;53228;51.380;0.098;2023-07-29T07:31:36;5.60;;;1.73;;
66421;SDS011;53228;51.380;0.098;2023-07-29T07:34:04;4.70;;;1.33;;
66421;SDS011;53228;51.380;0.098;2023-07-29T07:36:32;5.95;;;1.20;;
66421;SDS011;53228;51.380;0.098;2023-07-29T07:39:01;6.22;;;1.20;;
66421;SDS011;53228;51.380;0.098;2023-07-29T07:41:29;3.20;;;1.60;;
66421;SDS011;53228;51.380;0.098;2023-07-29T07:43:57;5.65;;;1.60;;
66421;SDS011;53228;51.380;0.098;2023-07-29T07:46:24;4.32;;;1.63;;
66421;SDS011;53228;51.380;0.098;2023-07-29T07:48:53;5.05;;;1.30;;
66421;SDS011;53228;51.380;0.098;2023-07-29T07:51:21;5.28;;;1.70;;
66421;SDS011;53228;51.380;0.098;2023-07-29T07:53:48;4.60;;;1.33;;
66421;SDS011;53228;51.380;0.098;2023-07-29T07:56:16;5.80;;;1.40;;
66421;SDS011;53228;51.380;0.098;2023-07-29T07:58:44;7.00;;;1.73;;
66421;SDS011;53228;51.380;0.098;2023-07-29T08:01:12;5.45;;;1.48;;
66421;SDS011;53228;51.380;0.098;2023-07-29T08:03:40;5.78;;;1.30;;
66421;SDS011;53228;51.380;0.098;2023-07-29T08:06:08;3.40;;;1.33;;
66421;SDS011;53228;51.380;0.098;2023-07-29T08:08:36;5.07;;;1.10;;
66421;SDS011;53228;51.380;0.098;2023-07-29T08:11:04;2.35;;;1.20;;
66421;SDS011;53228;51.380;0.098;2023-07-29T08:13:32;4.93;;;1.30;;
66421;SDS011;53228;51.380;0.098;2023-07-29T08:16:00;6.07;;;1.20;;
66421;SDS011;53228;51.380;0.098;2023-07-29T08:18:28;6.07;;;1.73;;
66421;SDS011;53228;51.380;0.098;2023-07-29T08:20:57;4.18;;;1.38;;
66421;SDS011;53228;51.380;0.098;2023-07-29T08:23:26;6.07;;;2.03;;
66421;SDS011;53228;51.380;0.098;2023-07-29T08:25:54;13.52;;;4.50;;
66421;SDS011;53228;51.380;0.098;2023-07-29T08:28:23;12.55;;;3.80;;
66421;SDS011;53228;51.380;0.098;2023-07-29T08:30:51;7.55;;;2.60;;
66421;SDS011;53228;51.380;0.098;2023-07-29T08:33:19;4.47;;;1.65;;
66421;SDS011;53228;51.380;0.098;2023-07-29T08:35:46;6.80;;;2.63;;
66421;SDS011;53228;51.380;0.098;2023-07-29T08:38:14;2.33;;;1.20;;
66421;SDS011;53228;51.380;0.098;2023-07-29T08:40:42;6.18;;;1.20;;
66421;SDS011;53228;51.380;0.098;2023-07-29T08:43:20;6.68;;;0.90;;
66421;SDS011;53228;51.380;0.098;2023-07-29T08:45:55;3.72;;;0.70;;
66421;SDS011;53228;51.380;0.098;2023-07-29T08:48:39;4.07;;;0.82;;
66421;SDS011;53228;51.380;0.098;2023-07-29T08:51:09;5.28;;;1.20;;
66421;SDS011;53228;51.380;0.098;2023-07-29T08:56:06;2.50;;;0.82;;
66421;SDS011;53228;51.380;0.098;2023-07-29T08:58:34;7.38;;;1.40;;
66421;SDS011;53228;51.380;0.098;2023-07-29T09:01:02;5.88;;;1.98;;
66421;SDS011;53228;51.380;0.098;2023-07-29T09:03:30;4.65;;;2.10;;
66421;SDS011;53228;51.380;0.098;2023-07-29T09:05:59;7.18;;;1.98;;
66421;SDS011;53228;51.380;0.098;2023-07-29T09:08:28;6.95;;;1.10;;
66421;SDS011;53228;51.380;0.098;2023-07-29T09:10:56;3.15;;;1.05;;
66421;SDS011;53228;51.380;0.098;2023-07-29T09:13:24;3.67;;;1.60;;
66421;SDS011;53228;51.380;0.098;2023-07-29T09:15:56;4.32;;;0.88;;
66421;SDS011;53228;51.380;0.098;2023-07-29T09:18:25;6.18;;;1.10;;
66421;SDS011;53228;51.380;0.098;2023-07-29T09:20:54;4.28;;;1.02;;
66421;SDS011;53228;51.380;0.098;2023-07-29T09:23:27;5.68;;;0.93;;
66421;SDS011;53228;51.380;0.098;2023-07-29T09:26:01;4.53;;;1.00;;
66421;SDS011;53228;51.380;0.098;2023-07-29T09:28:37;5.88;;;0.93;;
66421;SDS011;53228;51.380;0.098;2023-07-29T09:31:06;4.28;;;0.93;;
66421;SDS011;53228;51.380;0.098;2023-07-29T09:33:34;1.42;;;0.60;;
66421;SDS011;53228;51.380;0.098;2023-07-29T09:38:35;2.28;;;0.40;;
66421;SDS011;53228;51.380;0.098;2023-07-29T09:41:03;6.30;;;1.20;;
66421;SDS011;53228;51.380;0.098;2023-07-29T09:43:32;7.32;;;2.70;;
66421;SDS011;53228;51.380;0.098;2023-07-29T09:46:00;7.45;;;3.03;;
66421;SDS011;53228;51.380;0.098;2023-07-29T09:48:32;11.93;;;4.00;;
66421;SDS011;53228;51.380;0.098;2023-07-29T09:51:09;8.98;;;2.70;;
66421;SDS011;53228;51.380;0.098;2023-07-29T09:53:44;10.23;;;2.35;;
66421;SDS011;53228;51.380;0.098;2023-07-29T09:56:14;5.57;;;1.58;;
66421;SDS011;53228;51.380;0.098;2023-07-29T09:58:43;4.75;;;0.90;;
66421;SDS011;53228;51.380;0.098;2023-07-29T10:01:13;3.55;;;0.80;;
66421;SDS011;53228;51.380;0.098;2023-07-29T10:03:41;4.50;;;1.15;;
66421;SDS011;53228;51.380;0.098;2023-07-29T10:08:39;6.40;;;1.15;;
66421;SDS011;53228;51.380;0.098;2023-07-29T10:11:07;5.97;;;1.33;;
66421;SDS011;53228;51.380;0.098;2023-07-29T10:13:37;4.90;;;1.38;;
66421;SDS011;53228;51.380;0.098;2023-07-29T10:16:05;4.18;;;1.20;;
66421;SDS011;53228;51.380;0.098;2023-07-29T10:18:33;4.60;;;1.40;;
66421;SDS011;53228;51.380;0.098;2023-07-29T10:21:02;6.40;;;1.75;;
66421;SDS011;53228;51.380;0.098;2023-07-29T10:23:32;8.20;;;1.42;;
66421;SDS011;53228;51.380;0.098;2023-07-29T10:26:07;3.50;;;1.38;;
66421;SDS011;53228;51.380;0.098;2023-07-29T10:28:39;6.45;;;1.27;;
66421;SDS011;53228;51.380;0.098;2023-07-29T10:31:10;3.33;;;1.05;;
66421;SDS011;53228;51.380;0.098;2023-07-29T10:33:38;7.60;;;2.58;;
66421;SDS011;53228;51.380;0.098;2023-07-29T10:36:07;4.40;;;1.30;;
66421;SDS011;53228;51.380;0.098;2023-07-29T10:38:35;6.70;;;1.67;;
66421;SDS011;53228;51.380;0.098;2023-07-29T10:41:04;4.22;;;1.27;;
66421;SDS011;53228;51.380;0.098;2023-07-29T10:46:22;6.00;;;1.30;;
66421;SDS011;53228;51.380;0.098;2023-07-29T10:51:21;5.68;;;1.25;;
66421;SDS011;53228;51.380;0.098;2023-07-29T10:53:51;5.20;;;1.38;;
66421;SDS011;53228;51.380;0.098;2023-07-29T10:56:28;4.93;;;1.13;;
66421;SDS011;53228;51.380;0.098;2023-07-29T10:58:57;5.68;;;0.73;;
66421;SDS011;53228;51.380;0.098;2023-07-29T11:01:42;8.77;;;1.63;;
66421;SDS011;53228;51.380;0.098;2023-07-29T11:09:53;3.70;;;1.27;;
66421;SDS011;53228;51.380;0.098;2023-07-29T11:15:24;4.38;;;0.90;;
66421;SDS011;53228;51.380;0.098;2023-07-29T11:18:01;2.95;;;0.50;;
66421;SDS011;53228;51.380;0.098;2023-07-29T11:20:31;2.67;;;1.20;;
66421;SDS011;53228;51.380;0.098;2023-07-29T11:23:01;4.72;;;1.33;;
66421;SDS011;53228;51.380;0.098;2023-07-29T11:25:37;2.75;;;1.05;;
66421;SDS011;53228;51.380;0.098;2023-07-29T11:28:08;2.50;;;0.73;;
66421;SDS011;53228;51.380;0.098;2023-07-29T11:30:43;2.38;;;0.90;;
66421;SDS011;53228;51.380;0.098;2023-07-29T11:33:13;6.30;;;1.35;;
66421;SDS011;53228;51.380;0.098;2023-07-29T11:35:45;5.55;;;1.10;;
66421;SDS011;53228;51.380;0.098;2023-07-29T11:38:16;3.33;;;1.15;;
66421;SDS011;53228;51.380;0.098;2023-07-29T11:40:54;3.83;;;0.73;;
66421;SDS011;53228;51.380;0.098;2023-07-29T11:43:25;2.78;;;1.23;;
66421;SDS011;53228;51.380;0.098;2023-07-29T11:45:56;3.42;;;0.80;;
66421;SDS011;53228;51.380;0.098;2023-07-29T11:48:31;4.63;;;0.75;;
66421;SDS011;53228;51.380;0.098;2023-07-29T11:51:01;6.00;;;0.90;;
66421;SDS011;53228;51.380;0.098;2023-07-29T11:53:36;1.77;;;0.70;;
66421;SDS011;53228;51.380;0.098;2023-07-29T11:56:10;3.95;;;1.10;;
66421;SDS011;53228;51.380;0.098;2023-07-29T11:58:43;7.72;;;0.98;;
66421;SDS011;53228;51.380;0.098;2023-07-29T12:01:13;1.77;;;0.70;;
66421;SDS011;53228;51.380;0.098;2023-07-29T12:03:49;3.33;;;0.80;;
66421;SDS011;53228;51.380;0.098;2023-07-29T12:06:20;1.83;;;0.80;;
66421;SDS011;53228;51.380;0.098;2023-07-29T12:08:55;3.55;;;0.88;;
66421;SDS011;53228;51.380;0.098;2023-07-29T12:11:31;2.83;;;0.75;;
66421;SDS011;53228;51.380;0.098;2023-07-29T12:14:00;5.47;;;1.13;;
66421;SDS011;53228;51.380;0.098;2023-07-29T12:16:28;4.07;;;0.65;;
66421;SDS011;53228;51.380;0.098;2023-07-29T12:19:02;4.28;;;1.00;;
66421;SDS011;53228;51.380;0.098;2023-07-29T12:21:31;5.57;;;1.75;;
66421;SDS011;53228;51.380;0.098;2023-07-29T12:23:58;2.25;;;1.02;;
66421;SDS011;53228;51.380;0.098;2023-07-29T12:26:27;5.63;;;0.80;;
66421;SDS011;53228;51.380;0.098;2023-07-29T12:28:56;4.95;;;0.70;;
66421;SDS011;53228;51.380;0.098;2023-07-29T12:31:32;1.95;;;0.60;;
66421;SDS011;53228;51.380;0.098;2023-07-29T12:34:00;2.60;;;0.75;;
66421;SDS011;53228;51.380;0.098;2023-07-29T12:36:43;3.22;;;0.75;;
66421;SDS011;53228;51.380;0.098;2023-07-29T12:39:19;3.47;;;0.55;;
66421;SDS011;53228;51.380;0.098;2023-07-29T12:41:52;4.80;;;0.85;;
66421;SDS011;53228;51.380;0.098;2023-07-29T12:44:39;5.00;;;0.80;;
66421;SDS011;53228;51.380;0.098;2023-07-29T12:47:07;2.28;;;0.68;;
66421;SDS011;53228;51.380;0.098;2023-07-29T12:49:36;3.90;;;0.90;;
66421;SDS011;53228;51.380;0.098;2023-07-29T12:52:04;3.17;;;0.70;;
66421;SDS011;53228;51.380;0.098;2023-07-29T12:54:32;2.75;;;0.80;;
66421;SDS011;53228;51.380;0.098;2023-07-29T12:56:59;4.70;;;0.65;;
66421;SDS011;53228;51.380;0.098;2023-07-29T12:59:27;4.15;;;1.00;;
66421;SDS011;53228;51.380;0.098;2023-07-29T13:01:54;4.70;;;1.00;;
66421;SDS011;53228;51.380;0.098;2023-07-29T13:04:22;4.68;;;1.00;;
66421;SDS011;53228;51.380;0.098;2023-07-29T13:06:49;3.97;;;0.75;;
66421;SDS011;53228;51.380;0.098;2023-07-29T13:09:17;5.57;;;0.50;;
66421;SDS011;53228;51.380;0.098;2023-07-29T13:11:45;4.32;;;0.60;;
66421;SDS011;53228;51.380;0.098;2023-07-29T13:14:13;3.45;;;0.63;;
66421;SDS011;53228;51.380;0.098;2023-07-29T13:16:40;1.05;;;0.50;;
66421;SDS011;53228;51.380;0.098;2023-07-29T13:19:08;1.70;;;0.47;;
66421;SDS011;53228;51.380;0.098;2023-07-29T13:21:36;3.80;;;0.80;;
66421;SDS011;53228;51.380;0.098;2023-07-29T13:24:03;6.20;;;0.95;;
66421;SDS011;53228;51.380;0.098;2023-07-29T13:26:31;1.58;;;1.00;;
66421;SDS011;53228;51.380;0.098;2023-07-29T13:28:59;3.65;;;0.52;;
66421;SDS011;53228;51.380;0.098;2023-07-29T13:31:26;4.32;;;0.82;;
66421;SDS011;53228;51.380;0.098;2023-07-29T13:33:54;2.78;;;0.82;;
66421;SDS011;53228;51.380;0.098;2023-07-29T13:36:22;5.53;;;0.60;;
66421;SDS011;53228;51.380;0.098;2023-07-29T13:38:49;2.97;;;0.82;;
66421;SDS011;53228;51.380;0.098;2023-07-29T13:41:17;3.75;;;0.80;;
66421;SDS011;53228;51.380;0.098;2023-07-29T13:43:44;3.88;;;0.93;;
66421;SDS011;53228;51.380;0.098;2023-07-29T13:46:12;2.10;;;0.80;;
66421;SDS011;53228;51.380;0.098;2023-07-29T13:48:39;1.52;;;0.70;;
66421;SDS011;53228;51.380;0.098;2023-07-29T13:51:07;3.17;;;1.08;;
66421;SDS011;53228;51.380;0.098;2023-07-29T13:53:35;0.95;;;0.40;;
66421;SDS011;53228;51.380;0.098;2023-07-29T13:56:04;1.90;;;0.65;;
66421;SDS011;53228;51.380;0.098;2023-07-29T13:58:31;2.42;;;0.70;;
66421;SDS011;53228;51.380;0.098;2023-07-29T14:00:59;2.55;;;0.50;;
66421;SDS011;53228;51.380;0.098;2023-07-29T14:03:27;1.38;;;0.47;;
66421;SDS011;53228;51.380;0.098;2023-07-29T14:05:54;4.07;;;0.47;;
66421;SDS011;53228;51.380;0.098;2023-07-29T14:08:22;1.75;;;0.40;;
66421;SDS011;53228;51.380;0.098;2023-07-29T14:10:50;4.82;;;0.47;;
66421;SDS011;53228;51.380;0.098;2023-07-29T14:13:17;1.35;;;0.45;;
66421;SDS011;53228;51.380;0.098;2023-07-29T14:15:45;1.63;;;0.63;;
66421;SDS011;53228;51.380;0.098;2023-07-29T14:18:13;2.83;;;0.60;;
66421;SDS011;53228;51.380;0.098;2023-07-29T14:20:40;2.78;;;0.60;;
66421;SDS011;53228;51.380;0.098;2023-07-29T14:23:08;2.28;;;1.23;;
66421;SDS011;53228;51.380;0.098;2023-07-29T14:25:36;2.88;;;0.73;;
66421;SDS011;53228;51.380;0.098;2023-07-29T14:28:04;1.88;;;0.60;;
66421;SDS011;53228;51.380;0.098;2023-07-29T14:30:31;6.80;;;0.60;;
66421;SDS011;53228;51.380;0.098;2023-07-29T14:32:59;3.30;;;0.60;;
66421;SDS011;53228;51.380;0.098;2023-07-29T14:35:27;4.38;;;1.92;;
66421;SDS011;53228;51.380;0.098;2023-07-29T14:37:54;2.88;;;1.30;;
66421;SDS011;53228;51.380;0.098;2023-07-29T14:40:22;4.85;;;0.70;;
66421;SDS011;53228;51.380;0.098;2023-07-29T14:42:50;3.33;;;0.82;;
66421;SDS011;53228;51.380;0.098;2023-07-29T14:45:17;2.85;;;0.73;;
66421;SDS011;53228;51.380;0.098;2023-07-29T14:47:45;2.42;;;0.85;;
66421;SDS011;53228;51.380;0.098;2023-07-29T14:50:13;2.33;;;0.70;;
66421;SDS011;53228;51.380;0.098;2023-07-29T14:52:40;7.20;;;0.80;;
66421;SDS011;53228;51.380;0.098;2023-07-29T14:55:08;0.80;;;0.40;;
66421;SDS011;53228;51.380;0.098;2023-07-29T14:57:36;5.75;;;0.80;;
66421;SDS011;53228;51.380;0.098;2023-07-29T15:00:04;1.77;;;0.63;;
66421;SDS011;53228;51.380;0.098;2023-07-29T15:02:32;4.25;;;1.13;;
66421;SDS011;53228;51.380;0.098;2023-07-29T15:05:00;4.63;;;1.02;;
66421;SDS011;53228;51.380;0.098;2023-07-29T15:07:28;2.58;;;0.60;;
66421;SDS011;53228;51.380;0.098;2023-07-29T15:09:55;3.47;;;0.68;;
66421;SDS011;53228;51.380;0.098;2023-07-29T15:12:23;2.22;;;0.70;;
66421;SDS011;53228;51.380;0.098;2023-07-29T15:14:51;3.10;;;0.52;;
66421;SDS011;53228;51.380;0.098;2023-07-29T15:17:19;3.47;;;0.60;;
66421;SDS011;53228;51.380;0.098;2023-07-29T15:19:46;2.88;;;0.65;;
66421;SDS011;53228;51.380;0.098;2023-07-29T15:22:16;3.03;;;0.60;;
66421;SDS011;53228;51.380;0.098;2023-07-29T15:24:45;3.13;;;0.60;;
66421;SDS011;53228;51.380;0.098;2023-07-29T15:27:13;3.45;;;0.50;;